sensor_id;sensor_type;location;lat;lon;timestamp;P1;durP1;ratioP1;P2;durP2;ratioP2
60718;SDS011;46567;51.660;5.824;2022-10-16T00:08:11;9.1;;;3.1;;
60718;SDS011;46567;51.660;5.824;2022-10-16T00:18:33;6.9;;;2.7;;
60718;SDS011;46567;51.660;5.824;2022-10-16T00:38:09;4.7;;;2.9;;
60718;SDS011;46567;51.660;5.824;2022-10-16T00:48:33;3.1;;;2.0;;
60718;SDS011;46567;51.660;5.824;2022-10-16T00:58:09;3.7;;;2.0;;
60718;SDS011;46567;51.660;5.824;2022-10-16T01:08:39;4.3;;;2.0;;
60718;SDS011;46567;51.660;5.824;2022-10-16T01:38:12;3.1;;;1.8;;
60718;SDS011;46567;51.660;5.824;2022-10-16T01:48:10;4.3;;;1.9;;
60718;SDS011;46567;51.660;5.824;2022-10-16T01:58:09;3.1;;;2.1;;
60718;SDS011;46567;51.660;5.824;2022-10-16T02:08:35;4.0;;;2.0;;
60718;SDS011;46567;51.660;5.824;2022-10-16T02:18:09;4.2;;;1.7;;
60718;SDS011;46567;51.660;5.824;2022-10-16T02:28:09;3.7;;;1.9;;
60718;SDS011;46567;51.660;5.824;2022-10-16T02:38:58;4.4;;;1.6;;
60718;SDS011;46567;51.660;5.824;2022-10-16T02:48:09;4.8;;;1.8;;
60718;SDS011;46567;51.660;5.824;2022-10-16T02:58:33;2.9;;;1.7;;
60718;SDS011;46567;51.660;5.824;2022-10-16T03:08:09;4.4;;;1.5;;
60718;SDS011;46567;51.660;5.824;2022-10-16T03:18:58;1.9;;;1.5;;
60718;SDS011;46567;51.660;5.824;2022-10-16T03:28:33;4.0;;;1.9;;
60718;SDS011;46567;51.660;5.824;2022-10-16T03:38:09;2.9;;;1.4;;
60718;SDS011;46567;51.660;5.824;2022-10-16T03:48:09;2.6;;;1.7;;
60718;SDS011;46567;51.660;5.824;2022-10-16T03:58:09;2.2;;;1.5;;
60718;SDS011;46567;51.660;5.824;2022-10-16T04:18:33;1.9;;;1.5;;
60718;SDS011;46567;51.660;5.824;2022-10-16T04:28:09;2.7;;;1.3;;
60718;SDS011;46567;51.660;5.824;2022-10-16T04:38:09;1.9;;;1.5;;
60718;SDS011;46567;51.660;5.824;2022-10-16T04:48:09;2.1;;;1.7;;
60718;SDS011;46567;51.660;5.824;2022-10-16T04:58:09;1.9;;;1.5;;
60718;SDS011;46567;51.660;5.824;2022-10-16T05:08:09;3.0;;;1.7;;
60718;SDS011;46567;51.660;5.824;2022-10-16T05:18:09;2.6;;;1.2;;
60718;SDS011;46567;51.660;5.824;2022-10-16T05:28:09;2.5;;;1.5;;
60718;SDS011;46567;51.660;5.824;2022-10-16T05:38:09;2.8;;;1.6;;
60718;SDS011;46567;51.660;5.824;2022-10-16T05:48:33;4.6;;;1.4;;
60718;SDS011;46567;51.660;5.824;2022-10-16T05:58:34;4.0;;;1.5;;
60718;SDS011;46567;51.660;5.824;2022-10-16T06:08:09;1.7;;;1.2;;
60718;SDS011;46567;51.660;5.824;2022-10-16T06:18:09;1.7;;;1.4;;
60718;SDS011;46567;51.660;5.824;2022-10-16T06:28:09;2.5;;;1.5;;
60718;SDS011;46567;51.660;5.824;2022-10-16T06:38:09;3.2;;;1.4;;
60718;SDS011;46567;51.660;5.824;2022-10-16T06:48:33;2.5;;;1.7;;
60718;SDS011;46567;51.660;5.824;2022-10-16T06:58:09;4.5;;;2.1;;
60718;SDS011;46567;51.660;5.824;2022-10-16T07:18:34;2.9;;;1.7;;
60718;SDS011;46567;51.660;5.824;2022-10-16T07:38:09;4.2;;;1.8;;
60718;SDS011;46567;51.660;5.824;2022-10-16T07:48:09;3.2;;;1.8;;
60718;SDS011;46567;51.660;5.824;2022-10-16T07:58:09;2.5;;;1.7;;
60718;SDS011;46567;51.660;5.824;2022-10-16T08:28:11;2.4;;;1.5;;
60718;SDS011;46567;51.660;5.824;2022-10-16T08:38:33;3.7;;;1.7;;
60718;SDS011;46567;51.660;5.824;2022-10-16T08:48:40;3.1;;;1.6;;
60718;SDS011;46567;51.660;5.824;2022-10-16T08:58:10;4.1;;;1.6;;
60718;SDS011;46567;51.660;5.824;2022-10-16T09:08:09;4.1;;;1.5;;
60718;SDS011;46567;51.660;5.824;2022-10-16T09:18:11;3.7;;;1.6;;
60718;SDS011;46567;51.660;5.824;2022-10-16T09:28:33;3.6;;;1.5;;
60718;SDS011;46567;51.660;5.824;2022-10-16T09:38:34;4.1;;;1.5;;
60718;SDS011;46567;51.660;5.824;2022-10-16T09:48:10;4.9;;;1.7;;
60718;SDS011;46567;51.660;5.824;2022-10-16T09:58:13;4.1;;;1.3;;
60718;SDS011;46567;51.660;5.824;2022-10-16T10:08:12;6.6;;;1.8;;
60718;SDS011;46567;51.660;5.824;2022-10-16T10:18:14;5.4;;;1.4;;
60718;SDS011;46567;51.660;5.824;2022-10-16T10:28:45;6.4;;;1.5;;
60718;SDS011;46567;51.660;5.824;2022-10-16T10:38:33;5.1;;;1.3;;
60718;SDS011;46567;51.660;5.824;2022-10-16T10:48:27;6.5;;;1.5;;
60718;SDS011;46567;51.660;5.824;2022-10-16T10:58:49;9.4;;;2.1;;
60718;SDS011;46567;51.660;5.824;2022-10-16T11:08:09;7.2;;;1.6;;
60718;SDS011;46567;51.660;5.824;2022-10-16T11:18:11;6.9;;;2.0;;
60718;SDS011;46567;51.660;5.824;2022-10-16T11:28:18;4.8;;;1.3;;
60718;SDS011;46567;51.660;5.824;2022-10-16T11:38:10;9.4;;;1.5;;
60718;SDS011;46567;51.660;5.824;2022-10-16T11:48:29;6.5;;;1.7;;
60718;SDS011;46567;51.660;5.824;2022-10-16T11:58:20;8.6;;;1.5;;
60718;SDS011;46567;51.660;5.824;2022-10-16T12:08:12;5.7;;;1.4;;
60718;SDS011;46567;51.660;5.824;2022-10-16T12:18:21;7.8;;;2.0;;
60718;SDS011;46567;51.660;5.824;2022-10-16T12:28:17;8.3;;;1.7;;
60718;SDS011;46567;51.660;5.824;2022-10-16T12:38:14;9.0;;;1.5;;
60718;SDS011;46567;51.660;5.824;2022-10-16T12:48:18;10.7;;;1.6;;
60718;SDS011;46567;51.660;5.824;2022-10-16T12:59:03;5.4;;;1.6;;
60718;SDS011;46567;51.660;5.824;2022-10-16T13:09:16;5.3;;;1.3;;
60718;SDS011;46567;51.660;5.824;2022-10-16T13:19:35;4.0;;;1.3;;
60718;SDS011;46567;51.660;5.824;2022-10-16T13:28:11;4.6;;;1.2;;
60718;SDS011;46567;51.660;5.824;2022-10-16T13:38:13;3.5;;;1.0;;
60718;SDS011;46567;51.660;5.824;2022-10-16T13:48:09;3.9;;;1.0;;
60718;SDS011;46567;51.660;5.824;2022-10-16T13:58:11;4.3;;;1.1;;
60718;SDS011;46567;51.660;5.824;2022-10-16T14:08:09;3.4;;;1.1;;
60718;SDS011;46567;51.660;5.824;2022-10-16T14:18:14;5.0;;;1.1;;
60718;SDS011;46567;51.660;5.824;2022-10-16T14:28:15;6.7;;;1.2;;
60718;SDS011;46567;51.660;5.824;2022-10-16T14:38:15;2.8;;;1.1;;
60718;SDS011;46567;51.660;5.824;2022-10-16T14:48:14;5.9;;;1.1;;
60718;SDS011;46567;51.660;5.824;2022-10-16T15:08:09;4.2;;;1.3;;
60718;SDS011;46567;51.660;5.824;2022-10-16T15:18:09;3.5;;;1.3;;
60718;SDS011;46567;51.660;5.824;2022-10-16T15:28:09;3.1;;;1.3;;
60718;SDS011;46567;51.660;5.824;2022-10-16T15:38:11;5.4;;;1.3;;
60718;SDS011;46567;51.660;5.824;2022-10-16T15:48:09;4.9;;;1.2;;
60718;SDS011;46567;51.660;5.824;2022-10-16T15:58:09;3.0;;;1.3;;
60718;SDS011;46567;51.660;5.824;2022-10-16T16:08:09;2.2;;;1.2;;
60718;SDS011;46567;51.660;5.824;2022-10-16T16:18:09;2.8;;;1.3;;
60718;SDS011;46567;51.660;5.824;2022-10-16T16:28:09;3.3;;;1.6;;
60718;SDS011;46567;51.660;5.824;2022-10-16T16:38:09;7.5;;;1.5;;
60718;SDS011;46567;51.660;5.824;2022-10-16T16:48:09;3.8;;;1.4;;
60718;SDS011;46567;51.660;5.824;2022-10-16T16:58:09;2.3;;;1.4;;
60718;SDS011;46567;51.660;5.824;2022-10-16T17:08:09;4.4;;;2.0;;
60718;SDS011;46567;51.660;5.824;2022-10-16T17:18:09;2.7;;;1.7;;
60718;SDS011;46567;51.660;5.824;2022-10-16T17:28:09;5.6;;;2.2;;
60718;SDS011;46567;51.660;5.824;2022-10-16T17:38:09;3.8;;;2.2;;
60718;SDS011;46567;51.660;5.824;2022-10-16T17:48:09;6.3;;;3.5;;
60718;SDS011;46567;51.660;5.824;2022-10-16T17:58:09;4.6;;;2.4;;
60718;SDS011;46567;51.660;5.824;2022-10-16T18:08:09;4.5;;;2.7;;
60718;SDS011;46567;51.660;5.824;2022-10-16T18:18:09;5.5;;;2.6;;
60718;SDS011;46567;51.660;5.824;2022-10-16T18:48:09;6.1;;;3.4;;
60718;SDS011;46567;51.660;5.824;2022-10-16T19:08:09;6.2;;;2.8;;
60718;SDS011;46567;51.660;5.824;2022-10-16T19:18:34;5.2;;;3.0;;
60718;SDS011;46567;51.660;5.824;2022-10-16T19:28:09;6.2;;;3.3;;
60718;SDS011;46567;51.660;5.824;2022-10-16T19:38:09;4.4;;;3.2;;
60718;SDS011;46567;51.660;5.824;2022-10-16T19:48:34;4.5;;;3.6;;
60718;SDS011;46567;51.660;5.824;2022-10-16T19:58:09;5.7;;;3.3;;
60718;SDS011;46567;51.660;5.824;2022-10-16T20:18:09;4.4;;;3.5;;
60718;SDS011;46567;51.660;5.824;2022-10-16T20:28:13;6.5;;;3.4;;
60718;SDS011;46567;51.660;5.824;2022-10-16T20:38:09;6.1;;;3.3;;
60718;SDS011;46567;51.660;5.824;2022-10-16T20:48:10;4.1;;;3.6;;
60718;SDS011;46567;51.660;5.824;2022-10-16T20:58:09;5.9;;;3.5;;
60718;SDS011;46567;51.660;5.824;2022-10-16T21:08:09;5.2;;;4.0;;
60718;SDS011;46567;51.660;5.824;2022-10-16T21:18:34;5.7;;;3.3;;
60718;SDS011;46567;51.660;5.824;2022-10-16T21:28:34;5.5;;;3.4;;
60718;SDS011;46567;51.660;5.824;2022-10-16T21:38:09;5.6;;;4.0;;
60718;SDS011;46567;51.660;5.824;2022-10-16T21:48:09;6.3;;;3.8;;
60718;SDS011;46567;51.660;5.824;2022-10-16T21:58:09;6.0;;;4.1;;
60718;SDS011;46567;51.660;5.824;2022-10-16T22:08:34;5.9;;;4.4;;
60718;SDS011;46567;51.660;5.824;2022-10-16T22:18:34;6.6;;;4.4;;
60718;SDS011;46567;51.660;5.824;2022-10-16T22:28:09;8.2;;;4.5;;
60718;SDS011;46567;51.660;5.824;2022-10-16T22:38:34;7.2;;;4.5;;
60718;SDS011;46567;51.660;5.824;2022-10-16T22:48:09;4.9;;;4.2;;
60718;SDS011;46567;51.660;5.824;2022-10-16T22:58:09;7.1;;;4.5;;
60718;SDS011;46567;51.660;5.824;2022-10-16T23:18:09;6.4;;;4.6;;
60718;SDS011;46567;51.660;5.824;2022-10-16T23:28:09;9.0;;;5.7;;
60718;SDS011;46567;51.660;5.824;2022-10-16T23:38:09;7.6;;;5.5;;
60718;SDS011;46567;51.660;5.824;2022-10-16T23:58:09;8.0;;;5.0;;
